Time;durP1;ratioP1;P1;durP2;ratioP2;P2;SDS_P1;SDS_P2;PMS_P1;PMS_P2;Temp;Humidity;BMP_temperature;BMP_pressure;BME280_temperature;BME280_humidity;BME280_pressure;Samples;Min_cycle;Max_cycle;Signal;HPM_P1;HPM_P2
2022/05/03 00:02:10;;;;;;;8.65;6.47;;;10.70;58.90;;;6.68;80.38;95219.09;5027476;28;20492;-47
2022/05/03 00:05:02;;;;;;;7.53;6.22;;;10.70;58.80;;;6.65;80.63;95214.28;5016241;28;20061;-47
2022/05/03 00:08:10;;;;;;;8.85;6.40;;;10.60;58.70;;;6.62;80.89;95221.94;5033714;28;20064;-49
2022/05/03 00:11:11;;;;;;;9.30;6.28;;;10.60;59.00;;;6.61;80.60;95218.50;5021541;28;20076;-49
2022/05/03 00:13:49;;;;;;;7.28;5.50;;;10.60;59.20;;;6.58;80.30;95205.75;5033929;28;20414;-49
2022/05/03 00:16:17;;;;;;;8.18;5.50;;;10.60;59.10;;;6.55;80.31;95210.72;5015180;28;20037;-48
2022/05/03 00:18:43;;;;;;;7.38;5.85;;;10.50;59.10;;;6.54;80.56;95215.22;4996608;28;20048;-48
2022/05/03 00:21:12;;;;;;;7.63;5.30;;;10.50;59.30;;;6.60;80.52;95216.88;4980116;28;20057;-47
2022/05/03 00:23:45;;;;;;;7.45;5.78;;;10.50;59.40;;;6.62;80.54;95221.94;5013770;28;20099;-48
2022/05/03 00:26:14;;;;;;;9.68;6.40;;;10.50;59.60;;;6.63;81.69;95219.03;4996826;28;20080;-45
2022/05/03 00:28:42;;;;;;;7.20;5.97;;;10.60;59.70;;;6.67;81.09;95216.66;5013570;28;20056;-47
2022/05/03 00:31:10;;;;;;;7.55;5.97;;;10.50;59.60;;;6.66;81.78;95212.44;4996326;28;20033;-47
2022/05/03 00:33:36;;;;;;;8.43;5.78;;;10.60;59.80;;;6.68;81.40;95218.28;4980225;28;20022;-48
2022/05/03 00:36:02;;;;;;;8.02;6.22;;;10.60;59.80;;;6.65;80.81;95219.59;4996223;28;20026;-46
2022/05/03 00:38:38;;;;;;;7.45;5.95;;;10.60;59.70;;;6.63;80.93;95229.59;5013493;28;20022;-47
2022/05/03 00:41:07;;;;;;;8.43;6.50;;;10.60;59.90;;;6.58;81.40;95216.34;4995393;28;20115;-47
2022/05/03 00:43:52;;;;;;;7.72;6.03;;;10.60;59.70;;;6.54;81.98;95220.50;4996312;28;20480;-51
2022/05/03 00:46:25;;;;;;;8.55;6.50;;;10.60;59.70;;;6.50;83.12;95219.41;4996093;28;20481;-46
2022/05/03 00:49:21;;;;;;;11.18;7.50;;;10.60;60.10;;;6.52;83.00;95221.78;4996316;28;20030;-47
2022/05/03 00:52:34;;;;;;;11.30;7.57;;;10.60;60.60;;;6.52;82.75;95214.69;5012682;28;20116;-48
2022/05/03 00:55:34;;;;;;;8.77;6.97;;;10.60;60.40;;;6.49;82.81;95210.69;4899587;29;20047;-45
2022/05/03 00:58:17;;;;;;;10.93;7.30;;;10.50;60.40;;;6.47;82.94;95215.41;4998491;28;20088;-48
2022/05/03 01:01:32;;;;;;;11.80;7.25;;;10.50;60.50;;;6.49;83.62;95210.69;4995756;28;20036;-50
2022/05/03 01:04:39;;;;;;;10.25;8.00;;;10.50;60.80;;;6.54;84.25;95209.91;4985840;28;20029;-48
2022/05/03 01:07:35;;;;;;;9.85;8.45;;;10.50;61.00;;;6.60;84.84;95208.94;4998283;28;20057;-47
2022/05/03 01:10:34;;;;;;;12.30;8.40;;;10.50;61.30;;;6.66;84.95;95213.22;4975522;28;20037;-50
2022/05/03 01:13:34;;;;;;;12.07;8.95;;;10.50;61.60;;;6.72;85.47;95208.78;5012881;28;20033;-46
2022/05/03 01:16:19;;;;;;;11.80;8.80;;;10.60;62.10;;;6.75;85.20;95210.94;5012994;28;20062;-46
2022/05/03 01:19:24;;;;;;;15.52;9.60;;;10.60;62.10;;;6.77;85.37;95205.38;4995321;28;20029;-47
2022/05/03 01:22:35;;;;;;;17.20;10.27;;;10.60;62.50;;;6.81;85.34;95206.50;4995369;28;20095;-46
2022/05/03 01:25:46;;;;;;;13.15;9.73;;;10.70;62.80;;;6.88;85.44;95207.09;5012879;28;20032;-48
2022/05/03 01:28:55;;;;;;;12.25;8.43;;;10.70;63.10;;;7.05;85.00;95212.28;5012879;28;20101;-46
2022/05/03 01:31:23;;;;;;;16.02;9.93;;;10.80;63.20;;;7.07;85.04;95207.53;5012740;28;20037;-48
2022/05/03 01:34:00;;;;;;;12.65;9.80;;;10.80;62.90;;;7.14;84.67;95216.88;4979015;28;20031;-46
2022/05/03 01:37:10;;;;;;;11.88;9.65;;;10.90;62.90;;;7.18;84.38;95209.25;4994817;28;20037;-46
2022/05/03 01:40:12;;;;;;;11.55;9.10;;;10.90;63.00;;;7.22;84.09;95214.84;4982796;28;20030;-46
2022/05/03 01:43:11;;;;;;;11.38;8.35;;;11.00;62.80;;;7.22;83.39;95212.19;5012637;28;20029;-46
2022/05/03 01:46:15;;;;;;;11.27;8.77;;;11.00;62.60;;;7.15;83.06;95213.19;4994943;28;20026;-46
2022/05/03 01:51:57;;;;;;;11.20;7.90;;;11.00;62.10;;;7.04;82.69;95211.50;4991785;28;20053;-48
2022/05/03 01:54:52;;;;;;;11.35;7.90;;;11.00;62.00;;;6.99;82.74;95214.09;4991565;28;20412;-47
2022/05/03 01:57:41;;;;;;;11.25;7.68;;;11.00;62.00;;;6.96;83.23;95209.31;4991197;28;20481;-46
2022/05/03 02:00:13;;;;;;;11.10;8.15;;;11.00;61.90;;;6.93;83.49;95213.25;4991909;28;20081;-45
2022/05/03 02:03:06;;;;;;;12.40;9.18;;;10.90;61.90;;;6.92;84.16;95213.50;4990515;28;20113;-47
2022/05/03 02:05:57;;;;;;;;;;;10.90;61.90;;;6.93;84.20;95212.47;4992279;28;20027;-49
2022/05/03 02:08:32;;;;;;;10.50;8.20;;;10.90;61.20;;;6.92;84.50;95209.00;4992206;28;19910;-45
2022/05/03 02:11:17;;;;;;;12.70;9.07;;;10.90;61.30;;;6.90;84.82;95210.31;4991310;28;20026;-46
2022/05/03 02:17:25;;;;;;;15.35;11.05;;;10.80;61.90;;;6.87;84.79;95216.91;4992732;28;20034;-51
2022/05/03 02:20:12;;;;;;;18.52;11.70;;;10.80;62.00;;;6.89;85.34;95211.34;4991725;28;20037;-47
2022/05/03 02:23:15;;;;;;;19.95;12.30;;;10.80;62.60;;;6.90;85.16;95212.97;4992621;28;20113;-46
2022/05/03 02:26:11;;;;;;;15.65;11.32;;;10.80;62.80;;;7.00;84.68;95220.19;4992567;28;20035;-46
2022/05/03 02:28:55;;;;;;;13.82;10.68;;;10.80;63.30;;;7.03;84.26;95214.41;4991399;28;20478;-46
2022/05/03 02:31:58;;;;;;;16.15;10.15;;;10.80;63.20;;;7.01;83.88;95216.50;4975608;28;20070;-48
2022/05/03 02:34:47;;;;;;;16.02;11.07;;;10.80;63.20;;;6.96;83.79;95214.59;4991582;28;20493;-46
2022/05/03 02:37:38;;;;;;;16.70;11.55;;;10.80;63.10;;;6.88;83.99;95212.41;4991282;28;20130;-48
2022/05/03 02:40:11;;;;;;;15.52;11.63;;;10.80;63.00;;;6.83;83.69;95215.81;4992531;28;20422;-50
2022/05/03 02:42:38;;;;;;;15.70;11.23;;;10.70;62.80;;;6.74;83.58;95212.00;4992509;28;20027;-48
2022/05/03 02:45:08;;;;;;;17.38;12.45;;;10.70;62.70;;;6.67;83.78;95203.44;4973162;28;20031;-46
2022/05/03 02:47:50;;;;;;;19.63;13.25;;;10.60;62.70;;;6.59;84.11;95202.06;4993185;28;20034;-46
2022/05/03 02:50:21;;;;;;;18.98;13.55;;;10.60;63.00;;;6.55;84.56;95214.19;4994685;28;20034;-48
2022/05/03 02:53:29;;;;;;;17.08;12.98;;;10.50;62.90;;;6.43;84.76;95208.22;4976482;28;20047;-46
2022/05/03 02:56:02;;;;;;;17.95;12.32;;;10.50;63.20;;;6.42;85.04;95214.53;4975523;28;20406;-46
2022/05/03 03:01:47;;;;;;;20.20;13.98;;;10.40;63.00;;;6.37;85.03;95217.94;4975657;28;20509;-46
2022/05/03 03:02:35;;;;;;;20.23;13.27;;;10.40;62.90;;;6.32;85.26;95212.56;4954747;29;20057;-49
2022/05/03 03:05:22;;;;;;;22.10;14.00;;;10.40;63.20;;;6.29;85.39;95209.63;4948327;29;20043;-46
2022/05/03 03:08:03;;;;;;;21.75;14.55;;;10.30;63.20;;;6.22;85.52;95204.53;4975200;28;20065;-47
2022/05/03 03:10:59;;;;;;;23.05;14.98;;;10.30;63.40;;;6.17;85.87;95210.56;4990991;28;20035;-46
2022/05/03 03:13:47;;;;;;;22.00;14.75;;;10.20;63.50;;;6.14;85.59;95207.59;4959099;28;20038;-45
2022/05/03 03:16:14;;;;;;;19.23;13.90;;;10.20;63.50;;;6.09;85.33;95202.25;4975974;28;20034;-47
2022/05/03 03:18:46;;;;;;;22.90;14.85;;;10.10;63.20;;;6.06;86.63;95202.75;4974827;28;20435;-48
2022/05/03 03:21:13;;;;;;;23.85;15.23;;;10.10;63.60;;;6.06;87.18;95202.75;4975916;28;20056;-46
2022/05/03 03:23:41;;;;;;;20.40;14.35;;;10.10;63.60;;;6.03;87.26;95199.53;4974869;28;20027;-49
2022/05/03 03:26:12;;;;;;;23.17;14.13;;;10.10;63.80;;;6.07;87.06;95199.84;4974740;28;20050;-45
2022/05/03 03:28:38;;;;;;;20.25;14.27;;;10.00;63.80;;;6.03;87.15;95204.03;4974785;28;20537;-49
2022/05/03 03:31:07;;;;;;;20.48;14.60;;;10.00;63.80;;;6.03;87.05;95207.47;4974574;28;20039;-46
2022/05/03 03:33:36;;;;;;;25.33;15.25;;;10.00;64.00;;;5.97;86.73;95207.66;4975749;28;20022;-46
2022/05/03 03:36:04;;;;;;;24.60;16.02;;;10.00;63.90;;;5.87;87.03;95210.91;4974587;28;20058;-46
2022/05/03 03:38:40;;;;;;;25.33;15.75;;;10.00;64.20;;;5.87;87.21;95210.91;4958642;28;20089;-47
2022/05/03 03:41:09;;;;;;;23.13;14.70;;;10.00;64.50;;;5.83;86.54;95204.53;4990644;28;20030;-46
2022/05/03 03:43:37;;;;;;;21.33;15.05;;;9.90;64.30;;;5.73;86.53;95207.81;4974430;28;20038;-45
2022/05/03 03:46:03;;;;;;;24.30;15.35;;;9.90;64.30;;;5.73;87.32;95213.09;4955333;28;20039;-49
2022/05/03 03:48:29;;;;;;;23.98;15.27;;;9.90;64.40;;;5.72;87.40;95222.06;4971573;28;20545;-49
2022/05/03 03:50:57;;;;;;;22.83;14.57;;;9.80;64.50;;;5.72;87.57;95216.78;4961346;28;20065;-45
2022/05/03 03:53:30;;;;;;;20.42;14.55;;;9.80;64.60;;;5.69;87.50;95219.91;4994794;28;20038;-46
2022/05/03 03:56:11;;;;;;;18.00;12.35;;;9.80;64.80;;;5.64;87.50;95214.56;4994280;28;20033;-50
2022/05/03 03:58:40;;;;;;;21.17;13.73;;;9.70;64.90;;;5.61;87.16;95217.69;4993349;28;20034;-46
2022/05/03 04:01:09;;;;;;;20.25;12.85;;;9.70;64.60;;;5.59;87.09;95232.97;4977621;28;20022;-50
2022/05/03 04:03:40;;;;;;;24.20;15.57;;;9.70;64.60;;;5.51;86.83;95220.97;4994682;28;20038;-50
2022/05/03 04:06:09;;;;;;;20.20;14.00;;;9.70;65.40;;;5.48;87.41;95228.56;4993555;28;20030;-47
2022/05/03 04:08:37;;;;;;;21.45;13.77;;;9.60;64.70;;;5.44;87.45;95230.91;4994580;28;20061;-46
2022/05/03 04:11:23;;;;;;;22.27;14.55;;;9.60;64.70;;;5.43;87.84;95236.44;4992941;28;20125;-48
2022/05/03 04:13:49;;;;;;;21.75;14.23;;;9.60;65.00;;;5.39;87.79;95235.28;4994060;28;20035;-48
2022/05/03 04:16:21;;;;;;;27.83;15.52;;;9.60;64.90;;;5.37;88.01;95232.91;4976824;28;20440;-47
2022/05/03 04:18:46;;;;;;;23.90;14.57;;;9.60;65.20;;;5.37;87.83;95232.91;4994393;28;20018;-47
2022/05/03 04:21:18;;;;;;;25.05;14.90;;;9.50;65.50;;;5.36;87.93;95236.59;4994220;28;20429;-45
2022/05/03 04:23:45;;;;;;;22.77;14.50;;;9.50;65.30;;;5.37;87.83;95240.03;4994401;28;20062;-51
2022/05/03 04:26:12;;;;;;;20.60;13.50;;;9.50;65.20;;;5.32;88.04;95233.59;4994230;28;20052;-45
2022/05/03 04:28:39;;;;;;;17.67;12.48;;;9.50;65.30;;;5.36;88.70;95233.13;4992990;28;20034;-47
2022/05/03 04:31:11;;;;;;;18.65;12.57;;;9.60;65.60;;;5.44;89.19;95238.81;4993056;28;20160;-48
2022/05/03 04:33:37;;;;;;;19.20;13.27;;;9.60;65.80;;;5.49;89.12;95238.91;4994056;28;20023;-46
2022/05/03 04:36:04;;;;;;;17.35;12.93;;;9.70;65.80;;;5.54;88.85;95238.19;4994082;28;20038;-46
2022/05/03 04:38:30;;;;;;;21.52;14.00;;;9.70;65.90;;;5.59;88.46;95242.75;5009085;28;20036;-48
2022/05/03 04:41:02;;;;;;;20.15;13.38;;;9.80;66.00;;;5.60;88.49;95237.22;5008976;28;20026;-47
2022/05/03 04:43:31;;;;;;;24.88;13.98;;;9.80;66.10;;;5.73;88.99;95250.09;4992592;28;20033;-46
2022/05/03 04:46:00;;;;;;;19.25;13.13;;;9.90;66.00;;;5.87;88.97;95252.44;4993994;28;20398;-46
2022/05/03 04:48:32;;;;;;;18.80;13.18;;;10.00;65.90;;;5.98;89.08;95248.91;4976398;28;20084;-46
2022/05/03 04:50:58;;;;;;;16.60;12.82;;;10.10;66.00;;;6.11;88.92;95253.84;4997613;28;20054;-46
2022/05/03 04:53:23;;;;;;;19.20;13.05;;;10.20;65.80;;;6.33;88.31;95259.16;5013436;28;20504;-46
2022/05/03 04:55:59;;;;;;;17.95;12.55;;;10.40;65.90;;;6.58;88.07;95265.78;4995704;28;20113;-45
2022/05/03 04:58:33;;;;;;;18.90;12.05;;;10.60;66.00;;;6.84;87.92;95265.06;5013296;28;20073;-48
2022/05/03 05:01:02;;;;;;;17.70;13.05;;;10.80;65.80;;;7.12;87.84;95266.66;5013203;28;20498;-50
2022/05/03 05:03:41;;;;;;;17.55;11.82;;;11.00;65.70;;;7.46;87.59;95268.28;4995641;28;20041;-49
2022/05/03 05:06:07;;;;;;;17.58;11.30;;;11.30;65.60;;;7.77;87.56;95269.31;4995459;28;20030;-48
2022/05/03 05:08:33;;;;;;;12.70;10.25;;;11.50;65.20;;;7.99;85.25;95258.59;4995871;28;20116;-47
2022/05/03 05:11:03;;;;;;;15.50;10.70;;;11.80;65.10;;;8.20;84.03;95262.97;4994792;28;20497;-48
2022/05/03 05:13:29;;;;;;;15.27;10.15;;;12.00;65.00;;;8.39;83.28;95262.59;5012999;28;20022;-45
2022/05/03 05:15:55;;;;;;;13.25;10.10;;;12.30;64.70;;;8.63;82.90;95260.31;5012938;28;20508;-47
2022/05/03 05:18:27;;;;;;;13.55;10.23;;;12.50;64.40;;;8.92;82.44;95268.63;5013003;28;20033;-46
2022/05/03 05:20:54;;;;;;;11.27;8.77;;;12.80;64.20;;;9.25;81.27;95265.53;4995086;28;21457;-49
2022/05/03 05:23:20;;;;;;;11.25;8.82;;;13.10;63.80;;;9.56;78.98;95278.03;4995373;28;20036;-47
2022/05/03 05:25:52;;;;;;;11.13;8.32;;;13.40;63.50;;;9.83;78.35;95273.25;5012813;28;20042;-46
2022/05/03 05:28:20;;;;;;;9.43;7.88;;;13.80;63.00;;;9.86;77.08;95270.06;4996197;28;20030;-48
2022/05/03 05:30:49;;;;;;;10.32;8.27;;;14.10;62.40;;;10.02;75.95;95272.72;5012521;28;20033;-46
2022/05/03 05:33:14;;;;;;;10.00;7.47;;;14.30;61.80;;;10.27;74.19;95279.91;5012621;28;20092;-50
2022/05/03 05:35:43;;;;;;;9.63;8.02;;;14.60;61.20;;;10.49;74.03;95285.69;5012622;28;20038;-45
2022/05/03 05:38:16;;;;;;;10.00;7.63;;;15.00;60.60;;;10.83;73.50;95282.38;4995122;28;20029;-46
2022/05/03 05:40:43;;;;;;;8.35;7.05;;;15.30;60.00;;;11.26;72.25;95288.06;4979357;28;20117;-51
2022/05/03 05:43:08;;;;;;;8.55;5.88;;;15.70;59.60;;;11.63;69.42;95286.75;5007201;28;20116;-57
2022/05/03 05:45:34;;;;;;;8.23;6.80;;;16.00;59.00;;;11.88;68.89;95285.78;4990770;28;20112;-52
2022/05/03 05:48:01;;;;;;;11.13;6.85;;;16.30;59.10;;;12.18;68.42;95282.84;5011584;28;20034;-48
2022/05/03 05:50:27;;;;;;;9.63;6.60;;;16.70;58.10;;;12.49;66.78;95285.22;4993921;28;20527;-50
2022/05/03 05:55:38;;;;;;;8.07;6.28;;;17.40;57.10;;;12.78;64.63;95284.34;5000984;28;20099;-46
2022/05/03 05:58:04;;;;;;;9.02;6.78;;;17.70;56.30;;;12.84;64.09;95281.34;4975641;28;20085;-48
2022/05/03 06:00:33;;;;;;;10.75;6.53;;;17.80;55.70;;;12.91;65.17;95291.69;5010159;28;20034;-48
2022/05/03 06:02:59;;;;;;;7.78;6.57;;;17.90;55.40;;;12.98;65.06;95292.13;4989595;28;20117;-47
2022/05/03 06:05:25;;;;;;;8.18;5.43;;;18.00;55.10;;;13.04;65.03;95285.66;5007436;28;20153;-48
2022/05/03 06:07:52;;;;;;;6.88;6.18;;;18.10;54.80;;;13.25;65.34;95293.44;4994100;28;20034;-47
2022/05/03 06:10:18;;;;;;;8.80;5.93;;;18.30;54.50;;;13.51;64.22;95292.00;5015470;28;20075;-53
2022/05/03 06:12:44;;;;;;;7.43;5.50;;;18.60;54.10;;;13.76;63.18;95290.03;4985362;28;20037;-51
2022/05/03 06:15:11;;;;;;;9.15;6.03;;;18.80;53.70;;;13.84;63.07;95300.06;4975623;28;20030;-51
2022/05/03 06:17:36;;;;;;;7.05;5.15;;;18.90;53.40;;;13.86;62.92;95303.25;4974094;28;20037;-55
2022/05/03 06:20:10;;;;;;;8.48;5.68;;;19.00;53.70;;;13.79;62.94;95300.16;5004741;28;20033;-47
2022/05/03 06:22:36;;;;;;;6.22;5.38;;;19.00;52.70;;;13.66;63.45;95301.66;5022953;28;20041;-46
2022/05/03 06:25:02;;;;;;;8.82;5.70;;;19.00;52.60;;;13.60;63.52;95300.97;5023169;28;20106;-48
2022/05/03 06:27:38;;;;;;;6.93;5.53;;;18.90;52.40;;;13.54;63.94;95301.34;4985547;28;20037;-50
2022/05/03 06:30:10;;;;;;;6.18;5.20;;;18.90;52.30;;;13.43;64.34;95304.13;5035677;28;20063;-47
2022/05/03 06:32:37;;;;;;;7.82;5.13;;;18.80;52.20;;;13.39;65.12;95305.00;5026022;28;20393;-49
2022/05/03 06:35:04;;;;;;;6.45;5.40;;;18.80;52.20;;;13.40;64.88;95309.28;4980993;28;20037;-49
2022/05/03 06:37:37;;;;;;;7.00;5.40;;;18.70;52.20;;;13.31;65.34;95311.00;5021792;28;20040;-47
2022/05/03 06:40:06;;;;;;;6.38;5.63;;;18.60;52.20;;;13.30;65.25;95314.75;5023104;28;20034;-46
2022/05/03 06:42:41;;;;;;;7.28;5.72;;;18.50;52.20;;;13.30;64.92;95320.13;4932491;28;20048;-48
2022/05/03 06:45:10;;;;;;;6.93;5.70;;;18.40;52.20;;;13.19;63.89;95309.53;5018531;28;20052;-51
2022/05/03 06:47:36;;;;;;;8.48;6.07;;;18.30;52.10;;;13.05;64.00;95315.84;5018082;28;20112;-47
2022/05/03 06:50:12;;;;;;;7.65;5.88;;;18.20;52.00;;;12.85;64.82;95327.56;4993484;28;20026;-46
2022/05/03 06:52:42;;;;;;;8.95;6.90;;;18.20;52.00;;;12.68;64.63;95314.66;4982438;28;20504;-47
2022/05/03 06:55:11;;;;;;;8.77;7.03;;;18.00;51.80;;;12.55;65.17;95326.81;5002597;28;20026;-46
2022/05/03 06:57:37;;;;;;;14.25;7.82;;;17.90;51.80;;;12.45;65.00;95322.38;5011554;28;20029;-50
2022/05/03 07:00:05;;;;;;;8.35;6.80;;;17.80;51.80;;;12.47;64.77;95327.44;4995053;28;20039;-49
2022/05/03 07:02:32;;;;;;;9.23;6.97;;;17.70;51.70;;;12.53;64.74;95330.84;5010718;28;20437;-47
2022/05/03 07:05:03;;;;;;;8.60;6.95;;;17.70;51.70;;;12.62;64.80;95327.28;4995684;28;20057;-49
2022/05/03 07:07:30;;;;;;;9.65;6.80;;;17.70;51.80;;;12.69;65.24;95330.44;4994805;28;20143;-46
2022/05/03 07:09:58;;;;;;;9.35;7.05;;;17.80;51.80;;;12.90;64.38;95333.66;4995577;28;20397;-50
2022/05/03 07:12:24;;;;;;;11.30;7.25;;;17.90;51.70;;;13.16;63.96;95334.16;4995463;28;20037;-47
2022/05/03 07:14:50;;;;;;;13.40;6.90;;;18.20;51.50;;;13.30;63.89;95338.84;4995489;28;20026;-50
2022/05/03 07:22:46;;;;;;;12.02;6.93;;;19.00;50.80;;;14.21;60.94;95342.06;4999266;28;20056;-46
2022/05/03 07:25:16;;;;;;;10.70;6.55;;;19.60;50.30;;;14.68;59.38;95342.09;5001295;28;20033;-47
2022/05/03 07:27:45;;;;;;;10.98;8.10;;;20.10;49.80;;;14.74;59.03;95343.59;4993957;28;20031;-49
2022/05/03 07:30:15;;;;;;;12.00;9.93;;;20.30;49.30;;;14.96;58.43;95332.19;5009557;28;20030;-48
2022/05/03 07:32:45;;;;;;;11.75;8.68;;;20.60;48.80;;;15.35;57.55;95339.69;5006182;28;20030;-48
2022/05/03 07:35:12;;;;;;;11.40;7.50;;;21.10;48.20;;;15.72;56.19;95338.66;4995428;28;20026;-49
2022/05/03 07:37:39;;;;;;;7.90;7.10;;;21.60;47.40;;;16.12;55.99;95341.50;4995156;28;20034;-48
2022/05/03 07:40:08;;;;;;;8.93;6.32;;;22.10;46.80;;;16.47;53.83;95346.31;5010420;28;20568;-47
2022/05/03 07:42:37;;;;;;;7.80;6.80;;;22.50;46.10;;;16.95;52.79;95346.44;4977758;28;20038;-48
2022/05/03 07:45:03;;;;;;;10.20;6.65;;;22.90;45.40;;;17.33;52.32;95348.63;5010148;28;20034;-52
2022/05/03 07:47:38;;;;;;;8.00;6.45;;;23.30;44.80;;;17.54;50.49;95349.63;4994982;28;20385;-52
2022/05/03 07:50:08;;;;;;;9.55;7.05;;;23.70;43.70;;;17.64;50.71;95348.53;4994810;28;20031;-49
2022/05/03 07:52:38;;;;;;;9.30;6.63;;;23.90;43.00;;;18.03;49.65;95349.53;5011889;28;20038;-54
2022/05/03 07:55:08;;;;;;;7.40;6.40;;;24.20;42.50;;;18.43;49.24;95349.38;4997017;28;20045;-51
2022/05/03 07:57:35;;;;;;;7.80;5.88;;;24.60;42.00;;;18.68;46.91;95345.81;4997371;28;20145;-52
2022/05/03 08:00:06;;;;;;;6.63;5.93;;;25.00;41.20;;;18.93;45.30;95354.97;4996799;28;20076;-54
2022/05/03 08:02:32;;;;;;;6.57;5.78;;;25.30;40.00;;;18.97;44.84;95352.41;5000781;28;20101;-54
2022/05/03 08:04:57;;;;;;;6.32;5.70;;;25.50;39.30;;;19.15;44.75;95355.84;4996807;28;20120;-53
2022/05/03 08:07:23;;;;;;;6.82;5.97;;;25.70;38.60;;;19.49;44.21;95356.75;4994865;28;20460;-50
2022/05/03 08:09:49;;;;;;;6.75;6.05;;;26.00;37.90;;;19.92;43.27;95355.72;4994178;28;20030;-53
2022/05/03 08:12:16;;;;;;;9.02;6.00;;;26.30;37.40;;;20.22;42.50;95359.16;4999833;28;20022;-52
2022/05/03 08:14:42;;;;;;;10.13;6.07;;;26.60;36.70;;;20.31;42.64;95362.59;5017652;28;20025;-53
2022/05/03 08:17:08;;;;;;;6.15;5.65;;;26.90;36.00;;;20.42;41.83;95369.16;5019425;28;20109;-54
2022/05/03 08:19:35;;;;;;;6.40;5.68;;;27.20;35.30;;;20.71;40.78;95370.19;5007795;28;20029;-56
2022/05/03 08:22:01;;;;;;;7.35;5.93;;;27.50;34.90;;;20.93;40.26;95372.50;4994613;28;20042;-52
2022/05/03 08:24:28;;;;;;;6.07;5.38;;;27.80;34.90;;;21.12;39.68;95371.16;5024350;28;20048;-52
2022/05/03 08:26:54;;;;;;;5.50;5.00;;;28.00;33.60;;;21.27;38.88;95367.78;4995506;28;20061;-52
2022/05/03 08:29:20;;;;;;;6.78;5.32;;;28.10;33.10;;;21.66;38.95;95371.00;5002096;28;20057;-54
2022/05/03 08:31:47;;;;;;;7.35;5.75;;;28.30;32.80;;;21.62;38.81;95373.59;5021373;28;20034;-56
2022/05/03 08:34:13;;;;;;;6.15;5.55;;;28.70;32.20;;;21.70;38.82;95374.59;4993111;28;20038;-52
2022/05/03 08:36:39;;;;;;;5.63;5.10;;;29.00;31.90;;;21.91;38.84;95375.25;4978652;28;20105;-49
2022/05/03 08:42:02;;;;;;;6.10;5.05;;;29.60;31.10;;;21.75;38.45;95377.09;5015639;28;20068;-52
2022/05/03 08:44:29;;;;;;;5.40;4.90;;;29.90;30.50;;;22.05;38.14;95387.63;5002617;28;20035;-54
2022/05/03 08:46:57;;;;;;;7.63;5.03;;;30.00;30.20;;;22.39;36.94;95378.19;5012233;28;20029;-54
2022/05/03 08:49:47;;;;;;;5.30;4.80;;;30.20;29.90;;;22.57;37.94;95379.47;4998522;28;20436;-55
2022/05/03 08:52:16;;;;;;;5.90;5.40;;;30.30;29.40;;;22.89;35.98;95384.97;5014370;28;20056;-57
2022/05/03 08:54:43;;;;;;;6.05;5.45;;;30.40;29.10;;;23.13;35.68;95375.13;5015301;28;20056;-52
2022/05/03 08:57:09;;;;;;;5.90;5.30;;;30.50;29.00;;;22.89;36.04;95373.34;4994407;28;20033;-53
2022/05/03 08:59:38;;;;;;;5.85;5.25;;;30.70;28.60;;;23.00;36.31;95368.97;5011525;28;20345;-50
2022/05/03 09:02:04;;;;;;;9.25;5.57;;;30.60;28.50;;;23.02;36.28;95372.16;4995019;28;20055;-53
2022/05/03 09:04:33;;;;;;;6.30;5.65;;;30.50;28.40;;;22.80;37.38;95370.78;5014561;28;20108;-55
2022/05/03 09:07:20;;;;;;;7.03;6.32;;;30.30;28.50;;;22.44;36.50;95366.28;5017782;28;20060;-51
2022/05/03 09:09:48;;;;;;;6.40;5.80;;;30.00;28.50;;;22.40;37.27;95371.63;4988225;28;20606;-55
2022/05/03 09:12:30;;;;;;;6.50;5.93;;;29.80;28.50;;;22.49;37.82;95361.41;5005331;28;20113;-52
2022/05/03 09:15:01;;;;;;;7.20;6.50;;;29.80;28.60;;;22.38;36.84;95365.78;4995569;28;20366;-54
2022/05/03 09:17:42;;;;;;;6.53;5.82;;;29.70;28.40;;;22.45;36.97;95376.81;4995474;28;20303;-56
2022/05/03 09:26:32;;;;;;;6.65;6.05;;;29.70;28.60;;;21.72;39.30;95375.06;5013147;28;20045;-55
2022/05/03 09:29:08;;;;;;;7.35;6.07;;;29.30;28.70;;;21.71;38.62;95371.53;4940206;28;20046;-50
2022/05/03 09:31:46;;;;;;;9.13;6.30;;;29.10;28.70;;;21.90;38.66;95370.94;4994015;28;20030;-53
2022/05/03 09:34:26;;;;;;;6.82;5.90;;;28.90;28.90;;;21.90;39.11;95370.16;4994199;28;20085;-56
2022/05/03 09:37:00;;;;;;;7.53;6.60;;;28.90;29.20;;;21.88;40.12;95367.78;5012550;28;20022;-53
2022/05/03 09:39:29;;;;;;;10.60;6.32;;;29.00;29.30;;;21.10;39.11;95370.72;5006624;28;20034;-50
2022/05/03 09:42:16;;;;;;;7.63;6.30;;;29.00;28.90;;;21.36;40.15;95373.91;4978914;28;20034;-50
2022/05/03 09:44:58;;;;;;;8.73;7.82;;;28.90;29.20;;;21.33;39.39;95365.66;5014162;28;20022;-51
2022/05/03 09:47:33;;;;;;;8.13;6.55;;;29.00;29.20;;;21.36;40.43;95359.59;5020234;28;20022;-52
2022/05/03 09:50:05;;;;;;;7.50;6.75;;;29.00;29.20;;;21.36;39.33;95368.50;4998633;28;20449;-56
2022/05/03 09:52:37;;;;;;;9.55;6.80;;;29.00;29.00;;;21.43;39.29;95354.38;4994742;28;20513;-52
2022/05/03 09:55:06;;;;;;;7.78;6.82;;;28.90;29.20;;;21.52;39.01;95357.00;4974797;28;20041;-50
2022/05/03 09:57:37;;;;;;;7.07;6.40;;;28.80;29.00;;;21.85;38.81;95352.22;4982786;28;20052;-54
2022/05/03 10:00:10;;;;;;;7.63;6.93;;;28.90;29.10;;;21.62;39.52;95351.91;4998013;28;20045;-53
2022/05/03 10:02:43;;;;;;;7.50;6.90;;;29.30;28.80;;;21.85;38.68;95351.44;5014057;28;20440;-53
2022/05/03 10:05:11;;;;;;;7.07;6.38;;;29.60;28.60;;;22.23;38.55;95347.50;5000231;28;20061;-51
2022/05/03 10:07:40;;;;;;;7.45;6.78;;;30.00;28.40;;;22.67;36.15;95342.91;5020698;28;20064;-52
2022/05/03 10:10:11;;;;;;;8.25;6.43;;;30.30;27.90;;;22.70;37.25;95341.41;4988149;28;20485;-53
2022/05/03 10:12:37;;;;;;;7.72;6.50;;;30.70;27.70;;;22.37;36.92;95329.69;5016359;28;20100;-56
2022/05/03 10:15:06;;;;;;;6.55;5.95;;;30.90;27.30;;;22.67;35.96;95326.63;5016131;28;20083;-51
2022/05/03 10:20:46;;;;;;;6.70;6.10;;;31.40;26.80;;;23.80;34.03;95326.25;5000550;28;20088;-53
2022/05/03 10:23:19;;;;;;;7.03;6.30;;;31.70;26.50;;;24.21;33.33;95319.34;4998887;28;20026;-54
2022/05/03 10:26:08;;;;;;;7.30;6.60;;;32.10;26.10;;;24.40;32.47;95311.16;5017223;28;20037;-56
2022/05/03 10:29:08;;;;;;;11.55;7.45;;;32.40;25.70;;;24.77;33.44;95320.81;4975446;28;20524;-56
2022/05/03 10:32:06;;;;;;;7.38;6.68;;;32.70;25.60;;;24.67;32.22;95309.38;5009928;28;20119;-55
2022/05/03 10:34:53;;;;;;;7.28;6.57;;;33.00;25.40;;;24.22;31.93;95307.31;4959552;28;20509;-54
2022/05/03 10:37:43;;;;;;;7.15;6.05;;;33.10;24.80;;;24.73;33.00;95301.69;5002548;28;20035;-57
2022/05/03 10:40:14;;;;;;;7.13;6.50;;;33.10;24.90;;;24.78;31.97;95306.03;4993786;28;20624;-56
2022/05/03 10:42:41;;;;;;;7.05;6.45;;;33.30;24.60;;;24.96;32.87;95301.69;5020000;28;20018;-54
2022/05/03 10:45:12;;;;;;;7.28;6.13;;;33.30;24.50;;;25.32;32.33;95305.81;5002991;28;20068;-57
2022/05/03 10:47:52;;;;;;;7.18;6.13;;;33.40;24.60;;;25.65;31.40;95303.56;5016389;28;20072;-56
2022/05/03 10:50:27;;;;;;;7.57;6.95;;;33.50;24.40;;;24.47;32.44;95302.38;5035152;28;20163;-55
2022/05/03 10:52:56;;;;;;;7.43;6.68;;;33.60;24.20;;;25.20;31.82;95297.06;5017966;28;20113;-57
2022/05/03 10:55:28;;;;;;;7.47;6.68;;;33.70;24.10;;;26.02;31.21;95303.72;5015275;28;20437;-55
2022/05/03 10:58:18;;;;;;;;;;;33.90;24.30;;;26.38;30.05;95296.72;5016697;28;20417;-55
2022/05/03 11:01:09;;;;;;;6.82;6.13;;;34.10;24.70;;;26.83;29.77;95296.84;5002638;28;20007;-59
2022/05/03 11:04:04;;;;;;;6.97;6.32;;;34.60;24.40;;;25.70;30.15;95295.06;5019179;28;20832;-57
2022/05/03 11:06:37;;;;;;;8.98;6.75;;;34.50;23.80;;;25.73;30.76;95289.66;5043532;28;20097;-56
2022/05/03 11:11:37;;;;;;;7.43;6.45;;;34.30;23.70;;;25.87;31.27;95286.38;5040124;28;20052;-57
2022/05/03 11:14:15;;;;;;;7.57;6.97;;;34.00;23.90;;;25.28;32.92;95285.88;5060505;28;20079;-56
2022/05/03 11:17:10;;;;;;;7.53;6.82;;;34.00;23.80;;;25.30;31.86;95277.34;5046325;28;20029;-53
2022/05/03 11:19:59;;;;;;;7.38;6.60;;;34.00;23.60;;;25.42;30.55;95273.66;5043484;28;20071;-52
2022/05/03 11:22:32;;;;;;;7.53;6.45;;;34.00;23.50;;;25.99;29.56;95277.94;5037753;28;20056;-55